Terminal Aerodrome Forecast
Issued by NWS

Home | Current Version | Previous Version | Text Only | Print | Product List | Glossary On
Versions: 1 2 3 4 5 6 7 8 9 10 11 12
000
FTUS41 KCAR 282327
TAFPQI
TAF
KPQI 282327Z 2900/2924 36010KT P6SM OVC015
     FM290200 31009KT P6SM BKN035
     FM291200 27008KT P6SM VCSH BKN030
     FM291700 31010G20KT 3/4SM -SHSN BR SCT007 OVC012
     FM291900 31015G25KT P6SM SCT020 BKN040
      AMD LTD TO CLD VIS AND WIND=

USA.gov is the U.S. government's official web portal to all federal, state and local government web resources and services.